createdAt,value
2022-11-09T00:01:21.898Z,3.97
2022-11-09T00:03:49.401Z,4.22
2022-11-09T00:06:16.724Z,4.13
2022-11-09T00:08:44.173Z,4.07
2022-11-09T00:11:12.148Z,4.32
2022-11-09T00:13:41.290Z,4.13
2022-11-09T00:16:10.488Z,4.03
2022-11-09T00:18:39.092Z,4.10
2022-11-09T00:21:12.522Z,4.15
2022-11-09T00:23:39.885Z,4.00
2022-11-09T00:26:09.936Z,4.05
2022-11-09T00:28:37.546Z,4.18
2022-11-09T00:31:07.618Z,4.35
2022-11-09T00:33:35.350Z,4.10
2022-11-09T00:36:08.294Z,4.22
2022-11-09T00:38:36.731Z,3.80
2022-11-09T00:41:06.475Z,3.97
2022-11-09T00:43:34.741Z,3.83
2022-11-09T00:46:02.275Z,4.00
2022-11-09T00:48:30.120Z,3.50
2022-11-09T00:50:58.228Z,3.78
2022-11-09T00:56:15.778Z,3.85
2022-11-09T00:58:43.248Z,4.00
2022-11-09T01:01:13.720Z,3.92
2022-11-09T01:03:44.639Z,3.83
2022-11-09T01:06:17.873Z,3.67
2022-11-09T01:08:46.312Z,3.70
2022-11-09T01:11:17.101Z,3.92
2022-11-09T01:13:44.859Z,3.20
2022-11-09T01:16:19.104Z,3.42
2022-11-09T01:18:46.933Z,4.03
2022-11-09T01:21:16.473Z,3.67
2022-11-09T01:23:44.162Z,3.47
2022-11-09T01:26:13.553Z,3.75
2022-11-09T01:28:41.756Z,3.95
2022-11-09T01:31:13.555Z,3.80
2022-11-09T01:33:41.566Z,3.85
2022-11-09T01:36:11.945Z,3.60
2022-11-09T01:38:39.919Z,3.17
2022-11-09T01:41:15.731Z,3.40
2022-11-09T01:43:43.700Z,3.38
2022-11-09T01:46:26.158Z,3.55
2022-11-09T01:49:08.416Z,3.97
2022-11-09T01:51:54.517Z,3.47
2022-11-09T01:54:28.999Z,3.38
2022-11-09T01:57:00.950Z,3.17
2022-11-09T01:59:33.606Z,5.30
2022-11-09T02:02:01.563Z,4.13
2022-11-09T02:04:50.395Z,3.72
2022-11-09T02:07:19.946Z,3.72
2022-11-09T02:10:01.872Z,3.78
2022-11-09T02:12:34.336Z,3.90
2022-11-09T02:15:07.386Z,3.22
2022-11-09T02:17:45.128Z,3.40
2022-11-09T02:20:15.063Z,3.25
2022-11-09T02:22:42.613Z,3.70
2022-11-09T02:25:11.043Z,3.97
2022-11-09T02:27:41.747Z,3.97
2022-11-09T02:30:10.350Z,4.13
2022-11-09T02:32:37.845Z,4.18
2022-11-09T02:35:05.626Z,3.92
2022-11-09T02:37:50.456Z,3.85
2022-11-09T02:40:23.037Z,3.53
2022-11-09T02:42:50.640Z,3.80
2022-11-09T02:45:18.603Z,3.70
2022-11-09T02:47:46.070Z,3.40
2022-11-09T02:50:20.171Z,3.65
2022-11-09T02:52:47.563Z,3.70
2022-11-09T02:55:16.576Z,4.43
2022-11-09T02:57:44.083Z,3.63
2022-11-09T03:00:14.651Z,3.22
2022-11-09T03:02:43.869Z,3.50
2022-11-09T03:05:12.331Z,3.20
2022-11-09T03:07:42.782Z,3.83
2022-11-09T03:10:10.254Z,3.42
2022-11-09T03:12:38.349Z,3.70
2022-11-09T03:15:10.561Z,3.65
2022-11-09T03:17:42.604Z,3.47
2022-11-09T03:20:11.272Z,3.25
2022-11-09T03:22:39.935Z,3.38
2022-11-09T03:25:07.820Z,3.63
2022-11-09T03:27:35.378Z,3.20
2022-11-09T03:30:03.938Z,3.17
2022-11-09T03:32:31.813Z,3.17
2022-11-09T03:34:59.921Z,3.58
2022-11-09T03:37:27.368Z,3.40
2022-11-09T03:39:54.979Z,3.85
2022-11-09T03:42:22.361Z,4.13
2022-11-09T03:44:50.306Z,3.75
2022-11-09T03:47:17.710Z,3.80
2022-11-09T03:49:45.064Z,3.33
2022-11-09T03:52:12.478Z,4.30
2022-11-09T03:54:39.894Z,4.22
2022-11-09T03:57:07.286Z,4.60
2022-11-09T03:59:34.631Z,4.30
2022-11-09T04:02:02.258Z,3.67
2022-11-09T04:04:29.713Z,2.70
2022-11-09T04:06:57.102Z,3.30
2022-11-09T04:09:24.616Z,2.80
2022-11-09T04:11:51.978Z,2.92
2022-11-09T04:14:19.420Z,2.92
2022-11-09T04:16:46.836Z,2.67
2022-11-09T04:19:14.325Z,3.30
2022-11-09T04:21:41.654Z,3.03
2022-11-09T04:24:09.368Z,2.70
2022-11-09T04:26:36.934Z,2.85
2022-11-09T04:29:04.603Z,2.78
2022-11-09T04:31:32.008Z,2.88
2022-11-09T04:33:59.386Z,2.88
2022-11-09T04:36:26.813Z,2.80
2022-11-09T04:38:54.179Z,3.13
2022-11-09T04:41:21.576Z,2.85
2022-11-09T04:43:49.002Z,2.47
2022-11-09T04:46:16.413Z,2.35
2022-11-09T04:48:44.632Z,2.40
2022-11-09T04:51:12.145Z,2.47
2022-11-09T04:53:40.284Z,2.53
